x

Edisto - 41 Nm Southeast Of Charleston, Sc (41004) Wave Buoy

4:50am - Thu 5th Mar 2015 All times are EST. -5 hours from GMT.

  • Sig Wave height 6.2ft
  • Swell Direction
  • Peak Period 6s
  • Average Period 5s
  • Wind
    22mph, 27mph gusts
  • Sea Temp 69°f
  • Air Temp 70°f
  • Sea Pressure 1015.3mb
  • Edisto - 41 Nm Southeast Of Charleston, Sc
  • Edisto - 41 Nm Southeast Of Charleston, Sc

More Historic Weather Station data

Upgrade to MSW Pro to gain access to the past 30 days of data for over 8000 Wavebouys and Weather Stations around the globe.

Join Pro

Comparision Forecast

View Surf forecast
   
Thu 03/05 4:50am 6ft 6s 5s 22 27 mph 1015.3mb 69f 70f
3:50am 6ft 7s 5s 22 27 mph 1015.3mb 69f 70f
2:50am 6ft 6s 5s 20 25 mph 1015.5mb 69f 70f
1:50am 6ft 7s 5s 20 22 mph 1016mb 69f 70f
12:50am 6.5ft 7s 5s 18 20 mph 1016.3mb 69f 71f
Wed 03/04 11:50pm 6.5ft 7s 5s 22 27 mph 1016.1mb 69f 72f
10:50pm 5.5ft 6s 5s 22 27 mph 1016mb 69f 72f
9:50pm 5.5ft 7s 5s 22 25 mph 1016.1mb 69f 72f
8:50pm 5.5ft 6s 5s 22 25 mph 1015.9mb 69f 72f
7:50pm 5.5ft 5s 5s 20 22 mph 1015.9mb 69f 71f
6:50pm 5.5ft 6s 5s 20 25 mph 1015.8mb 69f 71f
5:50pm 5ft 6s 5s 22 27 mph 1015.4mb 69f 71f
4:50pm 5ft 6s 5s 22 27 mph 1015.8mb 69f 70f
3:50pm 4.5ft 6s 5s 20 25 mph 1016.6mb 69f 69f
2:50pm 4.5ft 6s 5s 18 22 mph 1017.2mb 69f 69f
1:50pm 5ft 6s 5s 18 22 mph 1017.8mb 69f 69f
12:50pm 4.5ft 8s 5s 20 25 mph 1018.4mb 69f 69f
11:50am 5ft 8s 5s 18 22 mph 1019.2mb 69f 69f
10:50am 5ft 6s 6s 18 20 mph 1019.6mb 69f 69f
9:50am 5.5ft 6s 6s 16 18 mph 1020.1mb 69f 69f
8:50am 5ft 8s 6s 16 18 mph 1020.2mb 69f 67f
7:50am 5ft 6s 6s 13
mph
1020mb 68f 67f
6:50am 5ft 5s 5s 9 11 mph 1019.6mb 68f 66f
5:50am 4.5ft 7s 5s 11 13 mph 1019.4mb 68f 69f
4:50am 4.5ft 8s 5s 11 13 mph 1018.6mb 68f 70f
3:50am 4.5ft 9s 5s 13
mph
1018.4mb 68f 70f
2:50am 4.5ft 8s 5s 16 18 mph 1018.4mb 68f 70f
1:50am 4ft 8s 6s 13 18 mph 1018.9mb 68f 70f
12:50am 4.5ft 9s 6s 9 13 mph 1019.6mb 68f 69f
Tue 03/03 11:50pm 5ft 9s 6s 7 9 mph 1020.4mb 68f 69f
10:50pm 4.5ft 8s 6s 7
mph
1020.9mb 68f 67f
9:50pm 5ft 9s 6s 4 7 mph 1021.1mb 68f 65f
8:50pm 5ft 8s 6s 4 7 mph 1021mb 68f 62f
7:50pm 5ft 8s 6s 7 9 mph 1021.3mb 68f 61f
6:50pm 5ft 8s 6s 7 9 mph 1021mb 68f 61f
5:50pm 5ft 7s 6s 9 11 mph 1020.9mb 68f 63f
4:50pm 5.5ft 8s 6s 7 9 mph 1020.5mb 68f 63f
3:50pm 5ft 7s 6s 4 7 mph 1020.6mb 69f 69f
2:50pm 5.5ft 7s 6s 4
mph
1021.1mb 69f 70f
1:50pm 5.5ft 7s 6s 7 9 mph 1021.6mb 68f 70f
12:50pm 5ft 9s 5s 13 16 mph 1022.6mb 69f 68f
11:50am 5.5ft 6s 6s 16 20 mph 1023.3mb 69f 68f
10:50am 5.5ft 8s 6s 16 18 mph 1024mb 69f 68f
9:50am 5ft 8s 6s 16 18 mph 1024.3mb 69f 68f
8:50am 5ft 9s 6s 13 16 mph 1024.2mb 69f 68f
7:50am 4.5ft 6s 5s 13 16 mph 1023.9mb 69f 68f
6:50am 4.5ft 9s 5s 16 18 mph 1023.5mb 69f 67f
5:50am 4ft 9s 5s 13 18 mph 1023.5mb 68f 67f
4:50am 3.5ft 8s 5s 13 16 mph 1022.9mb 68f 66f
3:50am 4ft 9s 5s 16 18 mph 1022.6mb 68f 66f
2:50am 4ft 7s 5s 16 18 mph 1022.6mb 67f 66f
1:50am 4ft 9s 5s 16 18 mph 1023.1mb 67f 66f
12:50am 3.5ft 9s 5s 16 18 mph 1023.8mb 67f 65f
Mon 03/02 11:50pm 4ft 9s 5s 16 18 mph 1024.4mb 67f 64f
10:50pm 3.5ft 10s 5s 18 20 mph 1024.7mb 67f 64f
9:50pm 3ft 9s 6s 13 16 mph 1024.9mb 67f 62f
8:50pm 3.5ft 9s 5s 13 16 mph 1024.5mb 68f 61f
7:50pm 3.5ft 9s 6s 16 18 mph 1023.8mb 67f 60f
6:50pm 3ft 10s 5s 4 7 mph 1023.4mb 68f 62f
5:50pm 3.5ft 9s 5s 9 13 mph 1022.7mb 68f 62f
4:50pm 3.5ft 8s 5s 11 16 mph 1022.1mb 68f 61f
3:50pm 3.5ft 10s 5s 11 13 mph 1022.4mb 68f 60f
2:50pm 3.5ft 10s 6s 11 16 mph 1022.6mb 68f 59f
1:50pm 4ft 10s 5s 13 16 mph 1023.1mb 68f 59f
12:50pm 4ft 9s 5s 13 16 mph 1024.2mb 68f 58f
11:50am 4.5ft 8s 6s 16 18 mph 1025.3mb 68f 57f
10:50am 4.5ft 8s 5s 16 20 mph 1025.6mb 68f 57f
9:50am 4.5ft 9s 6s 16 20 mph 1025.6mb 68f 61f
8:50am 4.5ft 8s 6s 11 13 mph 1025.1mb 68f 60f
7:50am 4.5ft 8s 6s 18 20 mph 1025.1mb 68f 60f
6:50am 4ft 8s 6s 13 16 mph 1024.7mb 68f 60f
5:50am 4.5ft 8s 7s 11 13 mph 1024.6mb 68f 60f
4:50am 4.5ft 8s 6s 4 7 mph 1024.7mb 69f 57f
3:50am 5ft 8s 6s 2 4 mph 1025.4mb 68f 55f
2:50am 5ft 8s 7s 7 11 mph 1026.2mb 68f 55f
1:50am 4.5ft 8s 6s 7 11 mph 1026.3mb 68f 56f
12:50am 5ft 9s 6s 4 7 mph 1026.6mb 68f 55f
Sun 03/01 11:50pm 5.5ft 8s 6s 9 11 mph 1027.3mb 68f 54f
10:50pm 5.5ft 8s 6s 11 13 mph 1027.9mb 68f 54f
9:50pm 5.5ft 9s 6s 13 16 mph 1028mb 68f 54f
8:50pm 5.5ft 9s 6s 11 16 mph 1028.2mb 68f 54f
7:50pm 6ft 9s 6s 13 16 mph 1028.2mb 68f 55f
6:50pm 7ft 8s 6s 13 16 mph 1027.8mb 68f 56f
5:50pm 6.5ft 8s 6s 11 13 mph 1027.4mb 69f 57f
4:50pm 6.5ft 8s 6s 13 16 mph 1027.3mb 69f 56f
3:50pm 7.5ft 8s 6s 13 16 mph 1027.8mb 69f 55f
2:50pm 8ft 8s 6s 13 18 mph 1028mb 68f 55f
1:50pm 7ft 7s 6s 16 18 mph 1028.6mb 68f -
12:50pm 8ft 7s 6s 16 20 mph 1029mb 68f 70f
11:50am 8ft 7s 6s 18 20 mph 1029.7mb 68f 70f